Time;durP1;ratioP1;P1;durP2;ratioP2;P2;SDS_P1;SDS_P2;PMS_P1;PMS_P2;Temp;Humidity;BMP_temperature;BMP_pressure;BME280_temperature;BME280_humidity;BME280_pressure;Samples;Min_cycle;Max_cycle;Signal;HPM_P1;HPM_P2
2024/02/15 09:52:17;;;;;;;14.40;7.60;;;;;;;4.76;81.37;99891.65;80506;1299;3013697;-66
2024/02/15 09:54:44;;;;;;;12.00;8.50;;;;;;;4.76;80.87;99888.84;79177;1302;3011470;-65
2024/02/15 09:57:12;;;;;;;12.40;7.90;;;;;;;4.68;81.17;99895.35;78144;1302;3049500;-64
2024/02/15 09:59:39;;;;;;;9.80;7.60;;;;;;;4.74;80.70;99901.59;79388;1302;3019399;-67
2024/02/15 10:02:10;;;;;;;12.40;7.80;;;;;;;4.66;81.15;99898.71;79546;1301;3013648;-68
2024/02/15 10:04:42;;;;;;;9.90;7.50;;;;;;;4.63;81.09;99907.45;78047;1296;3049850;-66
2024/02/15 10:07:09;;;;;;;10.90;7.30;;;;;;;4.70;81.05;99911.43;79671;1296;3012792;-66
2024/02/15 10:09:37;;;;;;;9.60;5.40;;;;;;;4.70;81.23;99908.48;78278;1295;3026205;-66
2024/02/15 10:12:06;;;;;;;9.60;5.60;;;;;;;5.22;80.19;99914.88;79535;1296;3012845;-66
2024/02/15 10:14:35;;;;;;;10.10;6.00;;;;;;;5.88;77.61;99914.14;79270;1298;3011607;-66
2024/02/15 10:17:10;;;;;;;10.60;7.30;;;;;;;5.74;77.12;99922.26;79681;1301;3020751;-67
2024/02/15 10:19:39;;;;;;;11.40;7.70;;;;;;;5.44;77.61;99921.13;78450;1296;3069433;-66
2024/02/15 10:22:09;;;;;;;13.10;7.30;;;;;;;5.34;78.13;99926.33;79576;1295;3013125;-64
2024/02/15 10:24:39;;;;;;;12.00;6.80;;;;;;;5.26;78.42;99926.58;78440;1300;3049555;-64
2024/02/15 10:27:10;;;;;;;12.10;7.50;;;;;;;5.19;78.50;99929.73;79530;1296;3013284;-65
2024/02/15 10:29:39;;;;;;;9.80;7.20;;;;;;;4.99;78.82;99926.86;78336;1299;3049068;-65
2024/02/15 10:32:10;;;;;;;14.30;8.20;;;;;;;4.92;78.77;99924.83;79869;1300;3013664;-66
2024/02/15 10:34:47;;;;;;;14.30;8.70;;;;;;;4.79;79.60;99921.92;78381;1296;3054706;-70
2024/02/15 10:37:18;;;;;;;11.80;7.50;;;;;;;4.69;80.56;99923.58;78244;1295;3068852;-66
2024/02/15 10:39:46;;;;;;;12.20;7.70;;;;;;;4.68;80.81;99926.56;79427;1300;3011396;-66
2024/02/15 10:42:16;;;;;;;11.30;7.00;;;;;;;4.80;80.30;99923.65;78383;1295;3055230;-64
2024/02/15 10:44:43;;;;;;;11.60;7.90;;;;;;;4.77;80.44;99922.51;79402;1296;3013219;-66
2024/02/15 10:47:11;;;;;;;9.70;7.30;;;;;;;4.74;80.69;99923.64;79396;1296;3012124;-66
2024/02/15 10:49:39;;;;;;;11.50;7.30;;;;;;;4.70;80.53;99919.92;78484;1295;3052528;-65
2024/02/15 10:52:06;;;;;;;11.40;7.00;;;;;;;4.48;80.68;99922.27;79670;1301;3013663;-65
2024/02/15 10:54:52;;;;;;;11.00;7.30;;;;;;;4.37;81.02;99921.20;79398;1298;3011850;-64
2024/02/15 10:57:22;;;;;;;12.60;6.90;;;;;;;4.39;80.64;99924.43;78438;1295;3055960;-66
2024/02/15 10:59:54;;;;;;;10.00;6.40;;;;;;;4.38;80.58;99925.16;79844;1300;3013468;-65
2024/02/15 11:02:36;;;;;;;12.40;6.50;;;;;;;4.30;81.00;99926.09;78309;1295;3053189;-66
2024/02/15 11:05:14;;;;;;;11.40;7.50;;;;;;;4.30;81.05;99918.62;78226;1300;3050296;-65
2024/02/15 11:07:45;;;;;;;9.00;4.90;;;;;;;4.28;81.42;99916.59;78530;1298;3053182;-66
2024/02/15 11:10:16;;;;;;;9.70;5.20;;;;;;;4.76;79.94;99916.45;79548;1300;3014123;-64
2024/02/15 11:12:44;;;;;;;10.30;5.50;;;;;;;5.28;77.98;99920.98;78393;1300;3068916;-67
2024/02/15 11:15:12;;;;;;;9.30;6.30;;;;;;;5.38;77.33;99916.10;79764;1295;3013207;-63
2024/02/15 11:17:45;;;;;;;12.60;6.90;;;;;;;5.18;77.69;99912.23;79376;1298;3011651;-66
2024/02/15 11:20:42;;;;;;;10.00;5.90;;;;;;;5.19;77.71;99914.79;78314;1295;3053390;-65
2024/02/15 11:23:10;;;;;;;11.50;6.50;;;;;;;5.08;77.63;99914.27;78176;1299;3050940;-66
2024/02/15 11:25:38;;;;;;;13.80;7.30;;;;;;;4.93;77.98;99912.13;79514;1298;3013097;-65
2024/02/15 11:28:20;;;;;;;10.70;6.90;;;;;;;4.97;77.93;99908.71;79688;1295;3013382;-64
2024/02/15 11:30:49;;;;;;;12.70;7.80;;;;;;;4.72;78.60;99907.91;78348;1295;3051441;-65
2024/02/15 11:33:35;;;;;;;11.00;7.50;;;;;;;4.72;78.94;99906.50;79475;1295;3013716;-65
2024/02/15 11:36:11;;;;;;;13.90;8.40;;;;;;;4.76;78.95;99907.42;78326;1294;3053997;-65
2024/02/15 11:38:46;;;;;;;12.90;8.40;;;;;;;4.76;78.78;99905.55;78292;1295;3048772;-65
2024/02/15 11:41:18;;;;;;;15.00;8.10;;;;;;;4.71;79.21;99903.22;78991;1297;3011799;-65
2024/02/15 11:46:19;;;;;;;12.10;8.20;;;;;;;4.56;78.65;99906.43;78325;1298;3053633;-64
2024/02/15 11:48:50;;;;;;;15.20;8.20;;;;;;;4.39;79.24;99908.13;79605;1295;3011767;-64
2024/02/15 11:51:30;;;;;;;15.60;8.30;;;;;;;4.24;79.39;99907.85;78552;1298;3049560;-64
2024/02/15 11:54:11;;;;;;;13.00;8.70;;;;;;;4.24;79.44;99906.31;78379;1295;3058829;-66
2024/02/15 11:56:51;;;;;;;12.40;8.10;;;;;;;4.18;79.83;99908.56;78227;1297;3049794;-64
2024/02/15 11:59:31;;;;;;;13.20;8.50;;;;;;;4.14;79.85;99910.58;78543;1298;3052992;-63
2024/02/15 12:18:52;;;;;;;11.60;7.70;;;;;;;5.56;74.99;99909.11;78391;1298;3049965;-65
2024/02/15 12:21:22;;;;;;;14.40;7.50;;;;;;;5.38;75.17;99911.41;79659;1295;3012887;-64
2024/02/15 12:23:52;;;;;;;13.90;8.40;;;;;;;5.19;75.92;99916.01;78509;1295;3049502;-64
2024/02/15 12:26:19;;;;;;;16.00;7.80;;;;;;;4.97;76.52;99915.30;79351;1300;3011872;-64
2024/02/15 12:28:56;;;;;;;13.60;8.60;;;;;;;4.90;76.92;99921.41;79098;1296;3011710;-67
2024/02/15 12:31:28;;;;;;;15.20;8.20;;;;;;;4.86;76.95;99915.11;79057;1298;3011880;-61
2024/02/15 12:34:01;;;;;;;14.90;8.50;;;;;;;4.80;77.15;99913.23;79698;1298;3011631;-65
2024/02/15 12:36:32;;;;;;;18.40;8.50;;;;;;;4.82;77.29;99908.99;78547;1295;3050705;-65
2024/02/15 12:39:09;;;;;;;17.60;8.70;;;;;;;4.85;77.17;99909.05;79788;1295;3011414;-64
2024/02/15 12:41:40;;;;;;;14.50;8.20;;;;;;;4.74;77.16;99905.23;78353;1298;3049566;-67
2024/02/15 12:44:16;;;;;;;13.30;8.10;;;;;;;4.81;77.06;99905.02;79492;1298;3013052;-65
2024/02/15 12:46:45;;;;;;;15.40;8.60;;;;;;;4.72;77.03;99909.79;78330;1298;3050921;-65
2024/02/15 12:49:27;;;;;;;12.60;8.40;;;;;;;4.72;77.08;99909.29;79585;1298;3014698;-65
2024/02/15 12:52:37;;;;;;;14.40;8.30;;;;;;;4.42;78.12;99911.52;78582;1295;3068956;-65
2024/02/15 12:55:08;;;;;;;15.70;9.60;;;;;;;4.34;78.90;99911.05;78202;1298;3051816;-66
2024/02/15 12:57:35;;;;;;;16.50;9.80;;;;;;;4.33;79.18;99914.21;79483;1294;3011572;-66
2024/02/15 13:00:11;;;;;;;14.70;9.20;;;;;;;4.38;78.85;99912.84;78186;1295;3028667;-64
2024/02/15 13:02:39;;;;;;;14.50;8.60;;;;;;;4.43;78.88;99916.00;78217;1298;3053267;-65
2024/02/15 13:05:09;;;;;;;16.20;9.30;;;;;;;4.39;79.15;99916.12;79630;1298;3013249;-65
2024/02/15 13:07:38;;;;;;;18.20;9.60;;;;;;;4.36;79.38;99920.89;78367;1298;3051763;-66
2024/02/15 13:10:07;;;;;;;17.70;9.00;;;;;;;4.13;80.11;99922.19;79536;1295;3012729;-66
2024/02/15 13:12:37;;;;;;;20.10;9.20;;;;;;;4.06;80.50;99925.69;78444;1298;3056820;-64
2024/02/15 13:15:06;;;;;;;12.60;6.40;;;;;;;3.88;80.77;99929.80;79524;1298;3011406;-64
2024/02/15 13:17:35;;;;;;;10.60;6.80;;;;;;;4.49;79.60;99925.91;78595;1298;3053240;-66
2024/02/15 13:20:05;;;;;;;16.70;7.50;;;;;;;4.92;77.23;99924.12;79543;1298;3021195;-66
2024/02/15 13:22:36;;;;;;;14.90;7.90;;;;;;;5.07;76.14;99923.52;79064;1299;3011370;-63
2024/02/15 13:25:03;;;;;;;15.70;7.90;;;;;;;5.02;76.23;99925.23;79556;1298;3013446;-67
2024/02/15 13:27:33;;;;;;;19.20;8.10;;;;;;;4.71;76.73;99926.65;79202;1295;3013692;-65
2024/02/15 13:30:00;;;;;;;19.40;7.90;;;;;;;4.68;77.38;99927.98;79576;1296;3013255;-68
2024/02/15 13:32:27;;;;;;;16.60;9.00;;;;;;;4.66;77.34;99928.54;79672;1295;3011562;-62
2024/02/15 13:34:56;;;;;;;12.40;7.70;;;;;;;4.66;77.51;99927.17;78122;1295;3054269;-65
2024/02/15 13:37:23;;;;;;;12.60;7.60;;;;;;;4.52;77.95;99931.88;79595;1298;3012975;-66
2024/02/15 13:39:50;;;;;;;17.10;8.40;;;;;;;4.48;78.03;99930.95;79587;1298;3011650;-63
2024/02/15 13:42:18;;;;;;;13.80;9.60;;;;;;;4.40;78.45;99939.33;78450;1295;3069218;-64
2024/02/15 13:44:47;;;;;;;14.50;7.80;;;;;;;4.27;79.05;99936.40;79572;1298;3013381;-64
2024/02/15 13:47:13;;;;;;;15.90;8.00;;;;;;;4.13;79.26;99935.37;79614;1295;3011988;-68
2024/02/15 13:49:43;;;;;;;17.20;7.90;;;;;;;4.20;79.32;99941.80;78426;1300;3053586;-66
2024/02/15 13:52:10;;;;;;;15.20;8.40;;;;;;;4.21;79.63;99939.16;79707;1298;3013090;-66
2024/02/15 13:54:38;;;;;;;15.20;7.90;;;;;;;4.24;79.36;99949.64;79816;1295;3013089;-65
2024/02/15 13:57:07;;;;;;;18.70;8.50;;;;;;;4.23;79.51;99946.57;78558;1295;3067987;-66
2024/02/15 13:59:34;;;;;;;16.30;8.50;;;;;;;4.26;79.23;99948.23;79738;1295;3015886;-66
2024/02/15 14:02:03;;;;;;;14.60;8.40;;;;;;;4.26;79.27;99948.22;79767;1295;3014297;-64
2024/02/15 14:04:33;;;;;;;17.10;8.90;;;;;;;4.20;79.48;99948.04;78327;1295;3053444;-66
2024/02/15 14:06:59;;;;;;;17.80;9.30;;;;;;;4.16;79.22;99946.41;79762;1298;3011594;-65
2024/02/15 14:09:27;;;;;;;11.00;6.30;;;;;;;3.93;80.30;99948.92;79406;1298;3011668;-65
2024/02/15 14:11:55;;;;;;;13.00;6.50;;;;;;;4.31;79.43;99948.94;78342;1298;3068337;-65
2024/02/15 14:14:22;;;;;;;14.60;7.70;;;;;;;4.82;77.25;99949.95;79548;1296;3013439;-65
2024/02/15 14:16:48;;;;;;;14.20;7.90;;;;;;;4.94;76.28;99946.83;79624;1295;3011406;-65
2024/02/15 14:19:17;;;;;;;15.30;8.40;;;;;;;5.02;75.96;99951.77;78269;1298;3027186;-67
2024/02/15 14:21:44;;;;;;;16.70;8.60;;;;;;;4.85;75.82;99951.41;79756;1298;3013321;-68
2024/02/15 14:24:11;;;;;;;17.10;8.60;;;;;;;4.58;76.84;99953.93;79660;1295;3011664;-63
2024/02/15 14:26:39;;;;;;;15.90;8.20;;;;;;;4.59;76.73;99954.77;78252;1298;3068763;-63
2024/02/15 14:29:06;;;;;;;14.20;8.00;;;;;;;4.30;77.70;99958.50;79614;1298;3013618;-65
2024/02/15 14:34:20;;;;;;;17.80;9.30;;;;;;;4.14;78.47;99964.30;78427;1295;3052949;-65
2024/02/15 14:36:47;;;;;;;14.10;9.00;;;;;;;4.06;79.14;99967.11;79587;1297;3013598;-64
2024/02/15 14:39:14;;;;;;;16.70;9.30;;;;;;;4.09;79.05;99971.71;79527;1298;3011599;-66
2024/02/15 14:41:42;;;;;;;20.30;9.20;;;;;;;4.08;79.01;99969.66;78283;1301;3068893;-64
2024/02/15 14:44:10;;;;;;;17.10;8.30;;;;;;;3.93;79.66;99977.33;79598;1296;3013757;-64
2024/02/15 14:46:37;;;;;;;13.60;8.00;;;;;;;3.98;79.80;99979.29;79422;1295;3011625;-66
2024/02/15 14:49:06;;;;;;;20.00;9.40;;;;;;;3.99;79.68;99981.52;78388;1296;3052483;-65
2024/02/15 14:51:35;;;;;;;16.00;8.30;;;;;;;3.91;79.49;99983.10;79705;1300;3013510;-66
2024/02/15 14:54:03;;;;;;;15.40;8.00;;;;;;;3.83;80.17;99984.34;78462;1304;3052685;-69
2024/02/15 14:56:31;;;;;;;17.70;8.50;;;;;;;3.76;80.35;99986.23;79440;1298;3012848;-65
2024/02/15 14:59:00;;;;;;;14.00;6.20;;;;;;;3.85;80.13;99993.47;79449;1294;3011605;-65
2024/02/15 15:01:29;;;;;;;10.30;5.50;;;;;;;4.21;79.18;99996.02;78141;1296;3052135;-65
2024/02/15 15:03:57;;;;;;;10.90;6.20;;;;;;;4.83;76.43;99999.55;79414;1295;3012874;-65
2024/02/15 15:14:48;;;;;;;18.40;8.00;;;;;;;4.29;76.24;100009.17;78164;1298;3069706;-66
2024/02/15 15:17:16;;;;;;;12.20;8.00;;;;;;;4.24;76.38;100005.85;79550;1295;3013222;-63
2024/02/15 15:19:42;;;;;;;16.00;8.00;;;;;;;4.04;76.82;100009.45;79713;1295;3012826;-67
2024/02/15 15:22:10;;;;;;;14.70;7.80;;;;;;;3.90;77.45;100011.55;78594;1298;3052787;-67
2024/02/15 15:24:38;;;;;;;11.80;7.10;;;;;;;3.91;77.47;100012.91;79637;1300;3013392;-70
2024/02/15 15:27:05;;;;;;;13.00;7.20;;;;;;;3.81;78.16;100009.86;79517;1298;3011478;-67
2024/02/15 15:29:33;;;;;;;12.80;7.00;;;;;;;3.68;78.42;100014.83;78330;1298;3069421;-66
2024/02/15 15:32:00;;;;;;;14.20;7.70;;;;;;;3.76;78.41;100019.86;79535;1298;3013421;-68
2024/02/15 15:34:27;;;;;;;11.80;7.60;;;;;;;3.70;78.78;100025.03;79659;1298;3011707;-70
2024/02/15 15:36:57;;;;;;;13.30;7.60;;;;;;;3.56;79.14;100027.77;78327;1298;3053485;-68
2024/02/15 15:39:24;;;;;;;13.90;7.30;;;;;;;3.60;79.03;100029.74;79602;1298;3013101;-67
2024/02/15 15:41:53;;;;;;;13.00;6.70;;;;;;;3.59;78.88;100035.31;79732;1298;3011807;-72
2024/02/15 15:44:22;;;;;;;11.90;6.70;;;;;;;3.52;79.01;100038.08;78501;1298;3068746;-67
2024/02/15 15:46:50;;;;;;;11.90;6.30;;;;;;;3.49;79.00;100038.13;79689;1298;3013014;-68
2024/02/15 15:49:17;;;;;;;12.90;7.20;;;;;;;3.53;78.69;100043.23;80083;1298;3011264;-66
2024/02/15 15:51:45;;;;;;;14.90;7.20;;;;;;;3.63;78.58;100046.84;78667;1294;3053442;-68
2024/02/15 15:54:12;;;;;;;14.40;7.70;;;;;;;3.56;78.43;100042.65;79573;1298;3018990;-68
2024/02/15 15:56:38;;;;;;;15.00;7.00;;;;;;;3.60;78.43;100045.86;79703;1298;3013445;-66
2024/02/15 15:59:07;;;;;;;16.50;7.00;;;;;;;3.62;78.80;100050.33;78780;1295;3026224;-70
2024/02/15 16:01:35;;;;;;;15.10;7.00;;;;;;;3.64;78.29;100055.83;79641;1294;3018707;-68
2024/02/15 16:04:02;;;;;;;12.40;7.00;;;;;;;3.62;78.25;100059.33;79826;1295;3011737;-69
2024/02/15 16:06:30;;;;;;;12.10;6.80;;;;;;;3.68;78.30;100059.88;78462;1298;3053200;-68
2024/02/15 16:08:57;;;;;;;15.20;6.60;;;;;;;3.67;78.14;100066.31;79744;1298;3018578;-69
2024/02/15 16:11:24;;;;;;;18.20;7.60;;;;;;;3.72;78.09;100066.56;79745;1298;3011722;-69
2024/02/15 16:13:54;;;;;;;14.60;7.40;;;;;;;3.65;78.14;100063.24;78481;1295;3026273;-66
2024/02/15 16:16:21;;;;;;;14.10;7.40;;;;;;;3.63;78.21;100070.04;79745;1295;3011516;-67
2024/02/15 16:18:50;;;;;;;8.70;5.00;;;;;;;3.63;78.30;100069.69;79079;1296;3011693;-67
2024/02/15 16:21:18;;;;;;;16.30;6.70;;;;;;;4.12;77.20;100074.10;79608;1295;3021109;-65
2024/02/15 16:23:46;;;;;;;13.40;6.20;;;;;;;4.78;75.48;100080.73;79808;1295;3011873;-66
2024/02/15 16:26:14;;;;;;;12.40;6.30;;;;;;;5.01;74.19;100087.93;78344;1301;3051756;-67
2024/02/15 16:28:41;;;;;;;11.00;6.50;;;;;;;4.91;73.32;100090.99;79679;1295;3012932;-67
2024/02/15 16:31:07;;;;;;;13.70;7.30;;;;;;;4.70;73.51;100098.32;79601;1295;3011732;-70
2024/02/15 16:33:36;;;;;;;12.50;6.50;;;;;;;4.62;73.95;100101.13;78529;1298;3026124;-67
2024/02/15 16:36:06;;;;;;;11.60;6.90;;;;;;;4.46;73.83;100102.40;79560;1295;3013310;-67
2024/02/15 16:38:39;;;;;;;14.30;6.90;;;;;;;4.38;74.02;100103.11;78465;1295;3053628;-67
2024/02/15 16:41:07;;;;;;;12.80;6.60;;;;;;;4.28;74.06;100109.95;79767;1298;3011935;-68
2024/02/15 16:43:35;;;;;;;12.40;6.90;;;;;;;4.20;73.84;100116.06;78433;1296;3053534;-66
2024/02/15 16:46:03;;;;;;;13.10;6.90;;;;;;;4.15;73.79;100114.95;79901;1295;3012886;-70
2024/02/15 16:48:30;;;;;;;13.10;7.60;;;;;;;4.06;73.82;100112.58;79645;1298;3011623;-67
2024/02/15 16:51:01;;;;;;;16.80;7.80;;;;;;;4.04;73.94;100116.08;78633;1298;3056787;-69
2024/02/15 16:53:29;;;;;;;14.40;6.60;;;;;;;4.00;73.83;100115.30;79701;1295;3012864;-68
2024/02/15 16:55:58;;;;;;;11.70;6.50;;;;;;;3.82;73.81;100118.66;79099;1295;3011496;-67
2024/02/15 16:58:25;;;;;;;13.20;6.30;;;;;;;3.72;73.67;100117.51;79591;1298;3013767;-68
2024/02/15 17:00:52;;;;;;;15.50;6.60;;;;;;;3.74;73.47;100122.11;79582;1298;3013723;-66
2024/02/15 17:03:20;;;;;;;17.70;7.00;;;;;;;3.70;73.40;100120.30;78613;1295;3068214;-66
2024/02/15 17:05:46;;;;;;;13.60;6.20;;;;;;;3.63;73.43;100125.32;79515;1295;3013678;-68
2024/02/15 17:08:13;;;;;;;13.10;6.50;;;;;;;3.55;73.44;100125.65;79511;1295;3011806;-69
2024/02/15 17:10:41;;;;;;;10.40;6.00;;;;;;;3.56;73.26;100129.98;78391;1295;3026496;-71
2024/02/15 17:13:08;;;;;;;13.50;6.90;;;;;;;3.45;73.09;100128.11;79558;1298;3018599;-69
2024/02/15 17:15:35;;;;;;;12.40;6.40;;;;;;;3.36;73.65;100127.95;79779;1295;3011387;-66
2024/02/15 17:18:03;;;;;;;13.90;6.50;;;;;;;3.37;73.16;100129.85;78365;1298;3026646;-65
2024/02/15 17:20:30;;;;;;;14.00;6.70;;;;;;;3.36;72.80;100126.03;79572;1298;3012902;-69
2024/02/15 17:22:57;;;;;;;14.60;6.40;;;;;;;3.37;72.00;100132.26;79542;1298;3011585;-68
2024/02/15 17:25:27;;;;;;;18.20;6.80;;;;;;;3.40;71.67;100131.69;78608;1295;3026910;-69
2024/02/15 17:27:55;;;;;;;17.70;6.70;;;;;;;3.27;72.21;100132.27;79532;1298;3013022;-66
2024/02/15 17:30:24;;;;;;;18.80;7.20;;;;;;;3.22;71.88;100134.80;81523;1295;3011355;-69
2024/02/15 17:32:50;;;;;;;16.10;6.60;;;;;;;3.14;71.84;100132.39;82091;1295;3012564;-73
2024/02/15 17:35:18;;;;;;;21.00;7.30;;;;;;;3.13;70.96;100131.52;82031;1295;3011588;-72
2024/02/15 17:37:46;;;;;;;14.80;7.10;;;;;;;3.15;70.90;100135.30;80791;1294;3056162;-68
2024/02/15 17:40:13;;;;;;;15.70;6.90;;;;;;;3.24;70.83;100139.45;82042;1294;3018601;-69
2024/02/15 17:42:41;;;;;;;16.40;6.60;;;;;;;3.20;71.11;100146.27;82037;1295;3011301;-68
2024/02/15 17:45:09;;;;;;;12.90;5.50;;;;;;;3.11;71.35;100142.48;80812;1294;3051654;-67
2024/02/15 17:47:40;;;;;;;10.60;6.00;;;;;;;3.04;71.16;100147.63;82053;1295;3012553;-67
2024/02/15 17:50:13;;;;;;;14.30;5.90;;;;;;;3.03;70.81;100144.36;80771;1294;3052327;-70
2024/02/15 17:52:42;;;;;;;;;;;;;;;3.05;70.39;100146.23;82040;1295;3011545;-68
2024/02/15 17:55:10;;;;;;;8.70;4.80;;;;;;;3.05;69.46;100144.84;80792;1295;3048589;-69
2024/02/15 17:57:40;;;;;;;15.70;5.80;;;;;;;3.01;68.43;100148.36;82048;1296;3013946;-68
2024/02/15 18:00:14;;;;;;;9.80;4.40;;;;;;;2.96;66.81;100153.48;81487;1295;3010976;-72
2024/02/15 18:02:43;;;;;;;7.80;4.10;;;;;;;2.71;64.69;100155.14;81947;1295;3011341;-69
2024/02/15 18:05:11;;;;;;;9.60;4.40;;;;;;;2.63;64.00;100154.93;80751;1295;3051784;-69
2024/02/15 18:07:38;;;;;;;13.10;4.40;;;;;;;2.55;63.36;100150.21;82052;1294;3013238;-69
2024/02/15 18:10:07;;;;;;;10.70;4.30;;;;;;;2.41;63.21;100151.66;82032;1295;3011350;-67
2024/02/15 18:12:39;;;;;;;8.20;4.10;;;;;;;2.41;63.72;100155.80;80783;1295;3048274;-66
2024/02/15 18:15:13;;;;;;;9.70;4.80;;;;;;;2.25;63.48;100156.39;82070;1295;3012615;-73
2024/02/15 18:17:43;;;;;;;10.30;4.20;;;;;;;2.31;63.60;100164.44;80755;1295;3049213;-66
2024/02/15 18:20:12;;;;;;;10.80;3.90;;;;;;;2.31;64.02;100167.02;82029;1295;3012609;-67
2024/02/15 18:22:42;;;;;;;7.90;4.20;;;;;;;2.34;64.05;100171.48;80779;1295;3027716;-69
2024/02/15 18:25:09;;;;;;;8.40;4.00;;;;;;;2.34;64.54;100171.30;82026;1298;3012849;-71
2024/02/15 18:27:36;;;;;;;12.10;4.40;;;;;;;2.18;64.68;100172.06;82026;1295;3011605;-71
2024/02/15 18:30:11;;;;;;;11.40;4.10;;;;;;;2.06;64.21;100168.26;80771;1295;3048569;-70
2024/02/15 18:32:40;;;;;;;7.80;4.40;;;;;;;1.99;63.56;100172.34;81518;1294;3011544;-69
2024/02/15 18:35:10;;;;;;;10.80;4.00;;;;;;;1.99;63.08;100174.41;82088;1295;3011545;-69
2024/02/15 18:37:45;;;;;;;7.70;3.90;;;;;;;1.83;62.85;100178.95;81522;1295;3011175;-69
2024/02/15 18:40:11;;;;;;;11.40;4.20;;;;;;;1.73;62.75;100178.38;82032;1295;3011461;-70
2024/02/15 18:42:39;;;;;;;14.60;4.70;;;;;;;1.74;62.87;100178.73;80759;1301;3050815;-70
2024/02/15 18:45:06;;;;;;;15.70;4.70;;;;;;;1.76;62.37;100184.40;82084;1295;3018826;-69
2024/02/15 18:47:38;;;;;;;9.90;3.90;;;;;;;1.70;62.35;100188.10;80791;1295;3056191;-72
2024/02/15 18:50:08;;;;;;;12.40;4.50;;;;;;;1.73;62.47;100186.84;82059;1295;3012318;-69
2024/02/15 18:52:37;;;;;;;11.10;4.40;;;;;;;1.72;62.78;100195.86;81491;1301;3011155;-67
2024/02/15 18:55:04;;;;;;;8.50;4.30;;;;;;;1.69;62.59;100197.79;82069;1295;3012804;-70
2024/02/15 18:57:31;;;;;;;16.20;5.50;;;;;;;1.67;62.53;100205.24;82010;1298;3011335;-68
2024/02/15 18:59:59;;;;;;;8.20;4.10;;;;;;;1.55;62.60;100194.33;80806;1295;3026170;-69
2024/02/15 19:02:28;;;;;;;9.90;4.20;;;;;;;1.46;62.68;100195.13;82053;1295;3013243;-68
2024/02/15 19:05:03;;;;;;;9.90;4.30;;;;;;;1.49;62.24;100195.77;81557;1295;3012694;-71
2024/02/15 19:07:33;;;;;;;19.20;4.60;;;;;;;1.43;62.60;100201.04;81532;1295;3011215;-70
2024/02/15 19:09:59;;;;;;;10.20;4.60;;;;;;;1.44;62.92;100208.27;82090;1295;3012586;-71
2024/02/15 19:12:26;;;;;;;9.60;4.40;;;;;;;1.45;63.22;100204.62;82036;1296;3011626;-67
2024/02/15 19:14:58;;;;;;;10.90;4.40;;;;;;;1.54;63.13;100202.10;80798;1298;3026025;-68
2024/02/15 19:17:26;;;;;;;13.80;4.80;;;;;;;1.42;63.26;100206.90;82060;1295;3011331;-69
2024/02/15 19:19:54;;;;;;;9.90;4.00;;;;;;;1.50;63.06;100213.02;80839;1295;3067593;-71
2024/02/15 19:22:22;;;;;;;10.00;4.60;;;;;;;1.53;63.11;100215.07;82101;1294;3012599;-67
2024/02/15 19:24:51;;;;;;;9.60;4.50;;;;;;;1.46;63.38;100213.08;82059;1294;3011438;-69
2024/02/15 19:27:20;;;;;;;9.30;4.70;;;;;;;1.32;63.88;100218.06;80776;1295;3052487;-74
2024/02/15 19:29:47;;;;;;;12.60;4.70;;;;;;;1.28;64.15;100222.08;81952;1295;3011267;-65
2024/02/15 19:32:13;;;;;;;9.70;4.40;;;;;;;1.32;63.85;100222.20;82108;1294;3010879;-66
2024/02/15 19:34:41;;;;;;;13.60;4.50;;;;;;;1.24;63.39;100225.57;80747;1296;3068541;-66
2024/02/15 19:40:28;;;;;;;13.80;4.80;;;;;;;1.23;63.57;100229.02;80230;1301;3013191;-70
2024/02/15 19:42:55;;;;;;;15.20;4.90;;;;;;;1.10;63.68;100227.78;79046;1303;3013356;-70
2024/02/15 19:45:22;;;;;;;12.60;5.10;;;;;;;1.14;63.84;100229.81;79101;1302;3011883;-74
2024/02/15 19:47:51;;;;;;;7.20;4.30;;;;;;;1.03;63.48;100235.25;77879;1301;3052260;-69
2024/02/15 19:50:21;;;;;;;13.10;5.60;;;;;;;0.91;64.19;100231.23;79061;1302;3014706;-72
2024/02/15 19:52:49;;;;;;;9.00;4.40;;;;;;;0.91;64.42;100236.58;77749;1302;3055299;-74
2024/02/15 19:55:16;;;;;;;13.20;5.40;;;;;;;0.84;64.47;100234.05;79468;1299;3013377;-71
2024/02/15 19:57:42;;;;;;;12.60;5.20;;;;;;;0.77;64.67;100232.73;79417;1304;3011665;-71
2024/02/15 20:00:11;;;;;;;11.30;4.70;;;;;;;0.77;64.57;100234.45;78400;1301;3026250;-65
2024/02/15 20:02:38;;;;;;;11.70;4.60;;;;;;;0.73;64.43;100236.89;79349;1300;3013424;-70
2024/02/15 20:05:06;;;;;;;11.50;4.70;;;;;;;0.66;64.57;100243.68;79214;1297;3011570;-77
2024/02/15 20:07:36;;;;;;;11.70;5.50;;;;;;;0.63;64.67;100242.65;78345;1301;3055658;-68
2024/02/15 20:10:07;;;;;;;10.80;4.30;;;;;;;0.57;64.76;100242.54;79449;1297;3011812;-75
2024/02/15 20:12:35;;;;;;;13.40;5.40;;;;;;;0.50;65.17;100247.06;78143;1302;3053902;-65
2024/02/15 20:15:02;;;;;;;10.30;4.70;;;;;;;0.49;65.52;100247.59;79437;1300;3013046;-68
2024/02/15 20:17:29;;;;;;;11.60;4.60;;;;;;;0.51;64.93;100251.20;79544;1301;3011938;-70
2024/02/15 20:19:57;;;;;;;11.80;4.90;;;;;;;0.51;65.09;100246.39;78152;1300;3068509;-68
2024/02/15 20:22:24;;;;;;;11.30;4.10;;;;;;;0.47;65.03;100244.34;79384;1299;3013446;-73
2024/02/15 20:24:50;;;;;;;15.90;5.10;;;;;;;0.36;65.69;100247.85;79537;1301;3011293;-71
2024/02/15 20:27:21;;;;;;;8.10;4.50;;;;;;;0.40;65.50;100256.61;78108;1298;3025960;-71
2024/02/15 20:29:49;;;;;;;8.50;4.20;;;;;;;0.38;65.54;100254.21;79428;1298;3013421;-70
2024/02/15 20:34:52;;;;;;;11.10;5.00;;;;;;;0.35;65.81;100258.20;80196;1299;3013610;-71
2024/02/15 20:37:18;;;;;;;9.40;5.10;;;;;;;0.38;65.58;100262.32;79349;1304;3013160;-68
2024/02/15 20:39:45;;;;;;;10.30;5.30;;;;;;;0.29;65.96;100264.80;79208;1303;3012777;-73
2024/02/15 20:42:15;;;;;;;10.00;4.50;;;;;;;0.19;66.36;100257.25;78038;1304;3026161;-71
2024/02/15 20:44:42;;;;;;;10.70;4.80;;;;;;;0.25;66.20;100266.70;79271;1301;3013003;-70
2024/02/15 20:47:11;;;;;;;10.90;4.80;;;;;;;0.22;65.99;100266.54;79332;1298;3013168;-69
2024/02/15 20:49:39;;;;;;;9.70;4.70;;;;;;;0.21;65.23;100266.39;78450;1302;3048752;-69
2024/02/15 20:52:07;;;;;;;10.90;4.60;;;;;;;0.15;65.27;100267.45;79344;1301;3018381;-73
2024/02/15 20:54:33;;;;;;;11.50;4.80;;;;;;;0.12;65.49;100262.63;79273;1298;3011774;-71
2024/02/15 20:57:01;;;;;;;12.00;4.70;;;;;;;0.04;65.40;100254.41;78587;1294;3051833;-68
2024/02/15 20:59:29;;;;;;;13.10;4.90;;;;;;;-0.05;65.61;100256.00;79676;1295;3020671;-68
2024/02/15 21:01:56;;;;;;;13.80;5.10;;;;;;;-0.03;65.71;100253.58;79929;1297;3011383;-70
2024/02/15 21:04:25;;;;;;;10.50;5.10;;;;;;;0.04;65.89;100256.30;78388;1295;3049105;-72
2024/02/15 21:06:52;;;;;;;13.10;4.80;;;;;;;0.04;66.00;100257.52;79762;1294;3014022;-74
2024/02/15 21:09:19;;;;;;;11.00;4.90;;;;;;;0.06;66.26;100253.88;79669;1295;3011663;-68
2024/02/15 21:11:47;;;;;;;11.70;5.20;;;;;;;0.01;65.67;100255.98;78606;1297;3051247;-66
2024/02/15 21:14:14;;;;;;;7.90;4.10;;;;;;;-0.08;65.97;100254.28;79800;1294;3012883;-72
2024/02/15 21:16:41;;;;;;;9.30;4.50;;;;;;;-0.11;66.14;100253.61;79884;1297;3011590;-72
2024/02/15 21:19:09;;;;;;;8.40;4.50;;;;;;;-0.13;65.88;100251.39;78521;1295;3026496;-73
2024/02/15 21:21:36;;;;;;;11.70;4.60;;;;;;;-0.13;65.93;100257.41;79820;1297;3013229;-79
2024/02/15 21:24:04;;;;;;;15.20;5.00;;;;;;;-0.18;66.36;100259.15;79847;1297;3012208;-72
2024/02/15 21:26:32;;;;;;;13.40;5.30;;;;;;;-0.18;66.61;100262.27;78355;1299;3051940;-75
2024/02/15 21:28:59;;;;;;;15.30;4.60;;;;;;;-0.23;66.66;100267.44;79750;1295;3012891;-75
2024/02/15 21:31:26;;;;;;;10.90;4.80;;;;;;;-0.24;66.52;100271.05;79675;1296;3011590;-69
2024/02/15 21:33:53;;;;;;;9.60;4.90;;;;;;;-0.25;66.31;100272.27;78532;1295;3026254;-70
2024/02/15 21:36:20;;;;;;;10.80;4.90;;;;;;;-0.23;65.93;100276.91;79883;1294;3013033;-72
2024/02/15 21:38:50;;;;;;;11.80;5.40;;;;;;;-0.24;65.98;100275.70;79685;1295;3012391;-72
2024/02/15 21:41:18;;;;;;;11.60;5.50;;;;;;;-0.21;65.74;100281.55;78540;1294;3052201;-67
2024/02/15 21:43:46;;;;;;;10.30;4.90;;;;;;;-0.26;66.28;100283.64;79903;1297;3013971;-72
2024/02/15 21:46:13;;;;;;;15.50;5.10;;;;;;;-0.25;66.13;100286.39;79853;1295;3011858;-71
2024/02/15 21:48:42;;;;;;;10.90;4.80;;;;;;;-0.26;66.07;100294.31;78514;1297;3049229;-74
2024/02/15 21:51:08;;;;;;;13.00;5.10;;;;;;;-0.24;66.32;100298.44;79791;1294;3013429;-71